sensor_id;sensor_type;location;lat;lon;timestamp;P1;durP1;ratioP1;P2;durP2;ratioP2
25758;SDS011;13604;52.496;13.456;2023-03-14T00:00:37;2.42;;;1.30;;
25758;SDS011;13604;52.496;13.456;2023-03-14T00:03:03;3.25;;;1.30;;
25758;SDS011;13604;52.496;13.456;2023-03-14T00:05:28;3.55;;;1.23;;
25758;SDS011;13604;52.496;13.456;2023-03-14T00:07:53;1.10;;;1.00;;
25758;SDS011;13604;52.496;13.456;2023-03-14T00:10:19;5.95;;;1.45;;
25758;SDS011;13604;52.496;13.456;2023-03-14T00:12:45;4.15;;;1.40;;
25758;SDS011;13604;52.496;13.456;2023-03-14T00:15:11;1.10;;;1.00;;
25758;SDS011;13604;52.496;13.456;2023-03-14T00:17:37;2.97;;;1.30;;
25758;SDS011;13604;52.496;13.456;2023-03-14T00:20:04;1.88;;;1.27;;
25758;SDS011;13604;52.496;13.456;2023-03-14T00:22:33;2.25;;;1.08;;
25758;SDS011;13604;52.496;13.456;2023-03-14T00:24:59;2.30;;;1.15;;
25758;SDS011;13604;52.496;13.456;2023-03-14T00:27:24;3.42;;;1.15;;
25758;SDS011;13604;52.496;13.456;2023-03-14T00:29:49;2.45;;;1.13;;
25758;SDS011;13604;52.496;13.456;2023-03-14T00:32:15;3.33;;;1.38;;
25758;SDS011;13604;52.496;13.456;2023-03-14T00:34:40;2.97;;;1.35;;
25758;SDS011;13604;52.496;13.456;2023-03-14T00:37:05;2.33;;;1.35;;
25758;SDS011;13604;52.496;13.456;2023-03-14T00:39:31;1.30;;;1.17;;
25758;SDS011;13604;52.496;13.456;2023-03-14T00:41:56;2.10;;;1.25;;
25758;SDS011;13604;52.496;13.456;2023-03-14T00:44:21;1.52;;;1.40;;
25758;SDS011;13604;52.496;13.456;2023-03-14T00:46:46;2.65;;;1.70;;
25758;SDS011;13604;52.496;13.456;2023-03-14T00:49:12;5.13;;;1.60;;
25758;SDS011;13604;52.496;13.456;2023-03-14T00:51:37;1.88;;;1.20;;
25758;SDS011;13604;52.496;13.456;2023-03-14T00:54:03;2.78;;;1.23;;
25758;SDS011;13604;52.496;13.456;2023-03-14T00:56:28;2.88;;;1.45;;
25758;SDS011;13604;52.496;13.456;2023-03-14T00:58:54;2.25;;;1.20;;
25758;SDS011;13604;52.496;13.456;2023-03-14T01:01:20;2.45;;;1.20;;
25758;SDS011;13604;52.496;13.456;2023-03-14T01:13:52;3.72;;;1.10;;
25758;SDS011;13604;52.496;13.456;2023-03-14T01:19:40;1.20;;;1.10;;
25758;SDS011;13604;52.496;13.456;2023-03-14T01:22:05;7.28;;;1.30;;
25758;SDS011;13604;52.496;13.456;2023-03-14T01:24:30;1.77;;;1.27;;
25758;SDS011;13604;52.496;13.456;2023-03-14T01:26:56;2.03;;;1.17;;
25758;SDS011;13604;52.496;13.456;2023-03-14T01:29:21;3.10;;;1.52;;
25758;SDS011;13604;52.496;13.456;2023-03-14T01:31:46;1.60;;;1.10;;
25758;SDS011;13604;52.496;13.456;2023-03-14T01:34:12;3.17;;;1.73;;
25758;SDS011;13604;52.496;13.456;2023-03-14T01:36:37;2.28;;;1.30;;
25758;SDS011;13604;52.496;13.456;2023-03-14T01:39:02;4.35;;;1.52;;
25758;SDS011;13604;52.496;13.456;2023-03-14T01:41:28;1.90;;;1.40;;
25758;SDS011;13604;52.496;13.456;2023-03-14T01:43:54;2.17;;;1.27;;
25758;SDS011;13604;52.496;13.456;2023-03-14T01:49:01;4.75;;;1.58;;
25758;SDS011;13604;52.496;13.456;2023-03-14T01:51:47;1.30;;;1.13;;
25758;SDS011;13604;52.496;13.456;2023-03-14T01:54:18;1.63;;;1.20;;
25758;SDS011;13604;52.496;13.456;2023-03-14T01:56:50;3.03;;;1.58;;
25758;SDS011;13604;52.496;13.456;2023-03-14T01:59:19;1.42;;;1.20;;
25758;SDS011;13604;52.496;13.456;2023-03-14T02:01:45;1.23;;;1.13;;
25758;SDS011;13604;52.496;13.456;2023-03-14T02:04:13;2.70;;;1.15;;
25758;SDS011;13604;52.496;13.456;2023-03-14T02:07:01;2.85;;;1.13;;
25758;SDS011;13604;52.496;13.456;2023-03-14T02:09:39;2.60;;;1.13;;
25758;SDS011;13604;52.496;13.456;2023-03-14T02:12:07;2.65;;;1.10;;
25758;SDS011;13604;52.496;13.456;2023-03-14T02:14:34;1.30;;;1.10;;
25758;SDS011;13604;52.496;13.456;2023-03-14T02:17:01;1.67;;;1.02;;
25758;SDS011;13604;52.496;13.456;2023-03-14T02:19:42;3.88;;;1.23;;
25758;SDS011;13604;52.496;13.456;2023-03-14T02:22:15;3.85;;;1.10;;
25758;SDS011;13604;52.496;13.456;2023-03-14T02:27:20;1.35;;;1.10;;
25758;SDS011;13604;52.496;13.456;2023-03-14T02:29:58;1.42;;;1.20;;
25758;SDS011;13604;52.496;13.456;2023-03-14T02:32:27;2.10;;;1.20;;
25758;SDS011;13604;52.496;13.456;2023-03-14T02:34:59;3.70;;;1.25;;
25758;SDS011;13604;52.496;13.456;2023-03-14T02:37:30;2.67;;;1.42;;
25758;SDS011;13604;52.496;13.456;2023-03-14T02:40:00;2.35;;;1.20;;
25758;SDS011;13604;52.496;13.456;2023-03-14T02:42:26;2.28;;;1.13;;
25758;SDS011;13604;52.496;13.456;2023-03-14T02:45:34;3.13;;;1.00;;
25758;SDS011;13604;52.496;13.456;2023-03-14T02:47:41;2.03;;;1.20;;
25758;SDS011;13604;52.496;13.456;2023-03-14T02:50:10;3.70;;;1.30;;
25758;SDS011;13604;52.496;13.456;2023-03-14T02:52:39;2.47;;;1.35;;
25758;SDS011;13604;52.496;13.456;2023-03-14T02:55:04;1.02;;;0.93;;
25758;SDS011;13604;52.496;13.456;2023-03-14T02:57:30;1.17;;;1.02;;
25758;SDS011;13604;52.496;13.456;2023-03-14T02:59:58;3.03;;;1.20;;
25758;SDS011;13604;52.496;13.456;2023-03-14T03:02:24;1.65;;;0.80;;
25758;SDS011;13604;52.496;13.456;2023-03-14T03:04:50;1.85;;;1.08;;
25758;SDS011;13604;52.496;13.456;2023-03-14T03:07:15;1.35;;;1.02;;
25758;SDS011;13604;52.496;13.456;2023-03-14T03:09:40;1.60;;;0.93;;
25758;SDS011;13604;52.496;13.456;2023-03-14T03:12:05;2.25;;;1.17;;
25758;SDS011;13604;52.496;13.456;2023-03-14T03:14:31;1.05;;;0.95;;
25758;SDS011;13604;52.496;13.456;2023-03-14T03:16:56;1.35;;;1.00;;
25758;SDS011;13604;52.496;13.456;2023-03-14T03:19:21;1.90;;;1.17;;
25758;SDS011;13604;52.496;13.456;2023-03-14T03:21:47;1.13;;;1.02;;
25758;SDS011;13604;52.496;13.456;2023-03-14T03:24:13;5.50;;;1.25;;
25758;SDS011;13604;52.496;13.456;2023-03-14T03:26:38;1.40;;;1.30;;
25758;SDS011;13604;52.496;13.456;2023-03-14T03:29:03;0.80;;;0.80;;
25758;SDS011;13604;52.496;13.456;2023-03-14T03:31:29;1.08;;;0.85;;
25758;SDS011;13604;52.496;13.456;2023-03-14T03:33:54;1.92;;;0.90;;
25758;SDS011;13604;52.496;13.456;2023-03-14T03:36:23;2.03;;;1.20;;
25758;SDS011;13604;52.496;13.456;2023-03-14T03:38:49;2.35;;;1.33;;
25758;SDS011;13604;52.496;13.456;2023-03-14T03:41:15;2.85;;;1.05;;
25758;SDS011;13604;52.496;13.456;2023-03-14T03:43:40;1.52;;;1.08;;
25758;SDS011;13604;52.496;13.456;2023-03-14T03:46:06;2.30;;;1.17;;
25758;SDS011;13604;52.496;13.456;2023-03-14T03:48:32;1.98;;;1.20;;
25758;SDS011;13604;52.496;13.456;2023-03-14T03:50:57;3.97;;;1.10;;
25758;SDS011;13604;52.496;13.456;2023-03-14T03:53:23;2.55;;;0.93;;
25758;SDS011;13604;52.496;13.456;2023-03-14T03:55:48;4.85;;;1.10;;
25758;SDS011;13604;52.496;13.456;2023-03-14T03:58:13;1.48;;;1.10;;
25758;SDS011;13604;52.496;13.456;2023-03-14T04:00:39;1.67;;;0.80;;
25758;SDS011;13604;52.496;13.456;2023-03-14T04:03:04;1.60;;;1.20;;
25758;SDS011;13604;52.496;13.456;2023-03-14T04:05:30;1.70;;;1.05;;
25758;SDS011;13604;52.496;13.456;2023-03-14T04:07:55;3.67;;;1.00;;
25758;SDS011;13604;52.496;13.456;2023-03-14T04:10:20;2.30;;;1.35;;
25758;SDS011;13604;52.496;13.456;2023-03-14T04:12:46;2.67;;;1.30;;
25758;SDS011;13604;52.496;13.456;2023-03-14T04:15:11;1.95;;;1.38;;
25758;SDS011;13604;52.496;13.456;2023-03-14T04:17:36;1.10;;;1.00;;
25758;SDS011;13604;52.496;13.456;2023-03-14T04:20:02;2.20;;;1.17;;
25758;SDS011;13604;52.496;13.456;2023-03-14T04:22:28;1.80;;;1.08;;
25758;SDS011;13604;52.496;13.456;2023-03-14T04:24:53;1.73;;;1.02;;
25758;SDS011;13604;52.496;13.456;2023-03-14T04:27:18;1.10;;;1.00;;
25758;SDS011;13604;52.496;13.456;2023-03-14T04:29:43;3.75;;;1.00;;
25758;SDS011;13604;52.496;13.456;2023-03-14T04:32:09;2.47;;;1.13;;
25758;SDS011;13604;52.496;13.456;2023-03-14T04:34:34;1.98;;;1.25;;
25758;SDS011;13604;52.496;13.456;2023-03-14T04:36:59;1.85;;;1.30;;
25758;SDS011;13604;52.496;13.456;2023-03-14T04:39:25;1.20;;;0.95;;
25758;SDS011;13604;52.496;13.456;2023-03-14T04:41:50;2.55;;;1.38;;
25758;SDS011;13604;52.496;13.456;2023-03-14T04:44:15;2.58;;;1.17;;
25758;SDS011;13604;52.496;13.456;2023-03-14T04:46:41;1.90;;;1.35;;
25758;SDS011;13604;52.496;13.456;2023-03-14T04:49:06;3.55;;;1.17;;
25758;SDS011;13604;52.496;13.456;2023-03-14T04:51:31;1.40;;;1.00;;
25758;SDS011;13604;52.496;13.456;2023-03-14T04:54:23;2.80;;;1.20;;
25758;SDS011;13604;52.496;13.456;2023-03-14T04:56:48;1.27;;;1.00;;
25758;SDS011;13604;52.496;13.456;2023-03-14T04:59:13;2.03;;;1.08;;
25758;SDS011;13604;52.496;13.456;2023-03-14T05:01:39;1.73;;;1.13;;
25758;SDS011;13604;52.496;13.456;2023-03-14T05:04:06;2.85;;;1.27;;
25758;SDS011;13604;52.496;13.456;2023-03-14T05:06:31;3.40;;;1.25;;
25758;SDS011;13604;52.496;13.456;2023-03-14T05:08:56;1.00;;;0.90;;
25758;SDS011;13604;52.496;13.456;2023-03-14T05:11:21;2.42;;;1.05;;
25758;SDS011;13604;52.496;13.456;2023-03-14T05:13:47;3.88;;;1.33;;
25758;SDS011;13604;52.496;13.456;2023-03-14T05:16:12;1.90;;;1.08;;
25758;SDS011;13604;52.496;13.456;2023-03-14T05:18:37;1.50;;;1.27;;
25758;SDS011;13604;52.496;13.456;2023-03-14T05:21:03;2.03;;;1.10;;
25758;SDS011;13604;52.496;13.456;2023-03-14T05:23:29;2.00;;;1.00;;
25758;SDS011;13604;52.496;13.456;2023-03-14T05:25:54;2.60;;;1.90;;
25758;SDS011;13604;52.496;13.456;2023-03-14T05:28:20;3.10;;;1.08;;
25758;SDS011;13604;52.496;13.456;2023-03-14T05:30:45;2.42;;;2.03;;
25758;SDS011;13604;52.496;13.456;2023-03-14T05:33:11;4.07;;;1.40;;
25758;SDS011;13604;52.496;13.456;2023-03-14T05:35:36;2.42;;;1.30;;
25758;SDS011;13604;52.496;13.456;2023-03-14T05:38:02;2.15;;;1.27;;
25758;SDS011;13604;52.496;13.456;2023-03-14T05:40:27;3.75;;;1.40;;
25758;SDS011;13604;52.496;13.456;2023-03-14T05:42:52;4.43;;;1.35;;
25758;SDS011;13604;52.496;13.456;2023-03-14T05:45:18;4.72;;;1.20;;
25758;SDS011;13604;52.496;13.456;2023-03-14T05:47:43;3.38;;;1.30;;
25758;SDS011;13604;52.496;13.456;2023-03-14T05:50:09;3.60;;;1.10;;
25758;SDS011;13604;52.496;13.456;2023-03-14T05:52:34;2.05;;;1.20;;
25758;SDS011;13604;52.496;13.456;2023-03-14T05:55:00;1.33;;;1.00;;
25758;SDS011;13604;52.496;13.456;2023-03-14T05:57:25;4.60;;;1.50;;
25758;SDS011;13604;52.496;13.456;2023-03-14T05:59:50;3.03;;;1.25;;
25758;SDS011;13604;52.496;13.456;2023-03-14T06:02:16;3.05;;;1.50;;
25758;SDS011;13604;52.496;13.456;2023-03-14T06:04:41;3.15;;;1.80;;
25758;SDS011;13604;52.496;13.456;2023-03-14T06:07:06;3.80;;;1.38;;
25758;SDS011;13604;52.496;13.456;2023-03-14T06:09:32;4.30;;;1.20;;
25758;SDS011;13604;52.496;13.456;2023-03-14T06:11:57;2.90;;;1.60;;
25758;SDS011;13604;52.496;13.456;2023-03-14T06:14:22;4.22;;;1.08;;
25758;SDS011;13604;52.496;13.456;2023-03-14T06:16:48;5.68;;;1.40;;
25758;SDS011;13604;52.496;13.456;2023-03-14T06:19:14;3.72;;;1.23;;
25758;SDS011;13604;52.496;13.456;2023-03-14T06:21:39;2.88;;;1.20;;
25758;SDS011;13604;52.496;13.456;2023-03-14T06:24:04;1.60;;;1.00;;
25758;SDS011;13604;52.496;13.456;2023-03-14T06:26:30;5.40;;;1.35;;
25758;SDS011;13604;52.496;13.456;2023-03-14T06:28:55;4.18;;;1.63;;
25758;SDS011;13604;52.496;13.456;2023-03-14T06:31:20;3.08;;;1.63;;
25758;SDS011;13604;52.496;13.456;2023-03-14T06:33:46;5.47;;;1.40;;
25758;SDS011;13604;52.496;13.456;2023-03-14T06:36:11;4.15;;;1.30;;
25758;SDS011;13604;52.496;13.456;2023-03-14T06:38:36;6.55;;;1.73;;
25758;SDS011;13604;52.496;13.456;2023-03-14T06:41:05;4.32;;;1.33;;
25758;SDS011;13604;52.496;13.456;2023-03-14T06:43:32;4.15;;;1.08;;
25758;SDS011;13604;52.496;13.456;2023-03-14T06:45:57;7.25;;;1.40;;
25758;SDS011;13604;52.496;13.456;2023-03-14T06:48:22;2.75;;;0.93;;
25758;SDS011;13604;52.496;13.456;2023-03-14T06:50:48;5.53;;;1.10;;
25758;SDS011;13604;52.496;13.456;2023-03-14T06:53:14;4.78;;;1.25;;
25758;SDS011;13604;52.496;13.456;2023-03-14T06:55:39;6.07;;;1.48;;
25758;SDS011;13604;52.496;13.456;2023-03-14T06:58:04;3.75;;;1.38;;
25758;SDS011;13604;52.496;13.456;2023-03-14T07:00:32;6.35;;;1.73;;
25758;SDS011;13604;52.496;13.456;2023-03-14T07:02:58;4.53;;;1.40;;
25758;SDS011;13604;52.496;13.456;2023-03-14T07:05:23;6.10;;;1.42;;
25758;SDS011;13604;52.496;13.456;2023-03-14T07:07:48;4.57;;;1.35;;
25758;SDS011;13604;52.496;13.456;2023-03-14T07:10:14;6.50;;;1.65;;
25758;SDS011;13604;52.496;13.456;2023-03-14T07:12:39;2.55;;;1.40;;
25758;SDS011;13604;52.496;13.456;2023-03-14T07:15:04;3.00;;;1.42;;
25758;SDS011;13604;52.496;13.456;2023-03-14T07:17:30;6.38;;;1.58;;
25758;SDS011;13604;52.496;13.456;2023-03-14T07:19:55;3.83;;;1.17;;
25758;SDS011;13604;52.496;13.456;2023-03-14T07:22:20;3.90;;;1.63;;
25758;SDS011;13604;52.496;13.456;2023-03-14T07:24:46;3.25;;;1.55;;
25758;SDS011;13604;52.496;13.456;2023-03-14T07:27:11;4.90;;;1.75;;
25758;SDS011;13604;52.496;13.456;2023-03-14T07:29:36;4.88;;;1.73;;
25758;SDS011;13604;52.496;13.456;2023-03-14T07:32:02;4.97;;;1.90;;
25758;SDS011;13604;52.496;13.456;2023-03-14T07:34:27;5.22;;;1.30;;
25758;SDS011;13604;52.496;13.456;2023-03-14T07:36:53;3.08;;;1.55;;
25758;SDS011;13604;52.496;13.456;2023-03-14T07:39:18;4.43;;;1.48;;
25758;SDS011;13604;52.496;13.456;2023-03-14T07:41:43;7.32;;;1.85;;
25758;SDS011;13604;52.496;13.456;2023-03-14T07:44:09;5.78;;;1.75;;
25758;SDS011;13604;52.496;13.456;2023-03-14T07:46:34;5.70;;;1.45;;
25758;SDS011;13604;52.496;13.456;2023-03-14T07:48:59;14.07;;;1.60;;
25758;SDS011;13604;52.496;13.456;2023-03-14T07:51:24;3.95;;;1.25;;
25758;SDS011;13604;52.496;13.456;2023-03-14T07:53:50;3.35;;;1.60;;
25758;SDS011;13604;52.496;13.456;2023-03-14T07:56:15;4.95;;;1.65;;
25758;SDS011;13604;52.496;13.456;2023-03-14T07:58:40;5.53;;;1.30;;
25758;SDS011;13604;52.496;13.456;2023-03-14T08:01:06;3.40;;;1.27;;
25758;SDS011;13604;52.496;13.456;2023-03-14T08:03:31;4.38;;;1.80;;
25758;SDS011;13604;52.496;13.456;2023-03-14T08:05:56;5.13;;;1.60;;
25758;SDS011;13604;52.496;13.456;2023-03-14T08:08:22;4.90;;;1.40;;
25758;SDS011;13604;52.496;13.456;2023-03-14T08:10:47;6.60;;;1.50;;
25758;SDS011;13604;52.496;13.456;2023-03-14T08:13:12;4.05;;;1.33;;
25758;SDS011;13604;52.496;13.456;2023-03-14T08:15:38;8.07;;;1.42;;
25758;SDS011;13604;52.496;13.456;2023-03-14T08:18:04;3.17;;;1.42;;
25758;SDS011;13604;52.496;13.456;2023-03-14T08:20:29;7.53;;;1.35;;
25758;SDS011;13604;52.496;13.456;2023-03-14T08:22:58;7.28;;;1.40;;
25758;SDS011;13604;52.496;13.456;2023-03-14T08:25:25;6.97;;;1.83;;
25758;SDS011;13604;52.496;13.456;2023-03-14T08:27:51;7.20;;;1.75;;
25758;SDS011;13604;52.496;13.456;2023-03-14T08:30:18;3.70;;;1.65;;
25758;SDS011;13604;52.496;13.456;2023-03-14T08:32:44;5.47;;;1.83;;
25758;SDS011;13604;52.496;13.456;2023-03-14T08:35:09;5.45;;;1.48;;
25758;SDS011;13604;52.496;13.456;2023-03-14T08:37:36;7.25;;;1.90;;
25758;SDS011;13604;52.496;13.456;2023-03-14T08:40:01;4.90;;;1.63;;
25758;SDS011;13604;52.496;13.456;2023-03-14T08:42:31;6.10;;;1.48;;
25758;SDS011;13604;52.496;13.456;2023-03-14T08:44:58;7.55;;;1.40;;
25758;SDS011;13604;52.496;13.456;2023-03-14T08:47:23;8.85;;;1.70;;
25758;SDS011;13604;52.496;13.456;2023-03-14T08:49:49;5.03;;;1.48;;
25758;SDS011;13604;52.496;13.456;2023-03-14T08:52:14;3.45;;;1.38;;
25758;SDS011;13604;52.496;13.456;2023-03-14T08:54:41;4.72;;;1.20;;
25758;SDS011;13604;52.496;13.456;2023-03-14T08:57:06;12.63;;;1.98;;
25758;SDS011;13604;52.496;13.456;2023-03-14T08:59:32;6.70;;;1.63;;
25758;SDS011;13604;52.496;13.456;2023-03-14T09:01:57;7.57;;;1.77;;
25758;SDS011;13604;52.496;13.456;2023-03-14T09:04:22;7.28;;;1.50;;
25758;SDS011;13604;52.496;13.456;2023-03-14T09:06:48;4.22;;;1.60;;
25758;SDS011;13604;52.496;13.456;2023-03-14T09:09:13;4.82;;;1.50;;
25758;SDS011;13604;52.496;13.456;2023-03-14T09:11:38;2.78;;;1.52;;
25758;SDS011;13604;52.496;13.456;2023-03-14T09:14:04;7.03;;;1.60;;
25758;SDS011;13604;52.496;13.456;2023-03-14T09:16:29;6.70;;;1.58;;
25758;SDS011;13604;52.496;13.456;2023-03-14T09:18:55;6.55;;;1.48;;
25758;SDS011;13604;52.496;13.456;2023-03-14T09:21:22;4.28;;;1.38;;
25758;SDS011;13604;52.496;13.456;2023-03-14T09:23:47;6.00;;;1.73;;
25758;SDS011;13604;52.496;13.456;2023-03-14T09:26:13;3.88;;;1.48;;
25758;SDS011;13604;52.496;13.456;2023-03-14T09:28:39;5.65;;;1.67;;
25758;SDS011;13604;52.496;13.456;2023-03-14T09:31:08;5.55;;;1.50;;
25758;SDS011;13604;52.496;13.456;2023-03-14T09:33:35;5.30;;;1.40;;
25758;SDS011;13604;52.496;13.456;2023-03-14T09:36:00;7.13;;;1.40;;
25758;SDS011;13604;52.496;13.456;2023-03-14T09:38:26;5.03;;;1.40;;
25758;SDS011;13604;52.496;13.456;2023-03-14T09:40:51;5.40;;;1.25;;
25758;SDS011;13604;52.496;13.456;2023-03-14T09:43:18;3.40;;;1.30;;
25758;SDS011;13604;52.496;13.456;2023-03-14T09:45:46;3.58;;;1.33;;
25758;SDS011;13604;52.496;13.456;2023-03-14T09:48:19;4.72;;;1.10;;
25758;SDS011;13604;52.496;13.456;2023-03-14T09:50:52;5.18;;;1.30;;
25758;SDS011;13604;52.496;13.456;2023-03-14T09:53:27;7.60;;;1.70;;
25758;SDS011;13604;52.496;13.456;2023-03-14T09:56:00;6.88;;;1.80;;
25758;SDS011;13604;52.496;13.456;2023-03-14T09:58:26;5.15;;;1.67;;
25758;SDS011;13604;52.496;13.456;2023-03-14T10:00:52;7.28;;;1.50;;
25758;SDS011;13604;52.496;13.456;2023-03-14T10:03:29;5.78;;;1.23;;
25758;SDS011;13604;52.496;13.456;2023-03-14T10:05:58;6.82;;;1.88;;
25758;SDS011;13604;52.496;13.456;2023-03-14T10:08:23;9.13;;;2.05;;
25758;SDS011;13604;52.496;13.456;2023-03-14T10:10:49;4.30;;;1.50;;
25758;SDS011;13604;52.496;13.456;2023-03-14T10:13:19;7.93;;;1.60;;
25758;SDS011;13604;52.496;13.456;2023-03-14T10:15:52;7.53;;;1.63;;
25758;SDS011;13604;52.496;13.456;2023-03-14T10:18:29;6.97;;;1.75;;
25758;SDS011;13604;52.496;13.456;2023-03-14T10:21:17;2.85;;;1.20;;
25758;SDS011;13604;52.496;13.456;2023-03-14T10:23:50;7.07;;;1.45;;
25758;SDS011;13604;52.496;13.456;2023-03-14T10:26:19;4.97;;;1.30;;
25758;SDS011;13604;52.496;13.456;2023-03-14T10:28:53;3.05;;;1.60;;
25758;SDS011;13604;52.496;13.456;2023-03-14T10:31:26;6.80;;;1.48;;
25758;SDS011;13604;52.496;13.456;2023-03-14T10:33:58;5.85;;;1.40;;
25758;SDS011;13604;52.496;13.456;2023-03-14T10:36:32;5.70;;;1.48;;
25758;SDS011;13604;52.496;13.456;2023-03-14T10:41:47;2.67;;;1.40;;
25758;SDS011;13604;52.496;13.456;2023-03-14T10:44:15;6.53;;;1.10;;
25758;SDS011;13604;52.496;13.456;2023-03-14T10:46:44;5.40;;;1.27;;
25758;SDS011;13604;52.496;13.456;2023-03-14T10:49:16;4.22;;;1.30;;
25758;SDS011;13604;52.496;13.456;2023-03-14T10:51:51;3.35;;;1.27;;
25758;SDS011;13604;52.496;13.456;2023-03-14T10:54:20;3.55;;;1.45;;
25758;SDS011;13604;52.496;13.456;2023-03-14T10:56:58;3.38;;;1.50;;
25758;SDS011;13604;52.496;13.456;2023-03-14T10:59:26;6.32;;;1.10;;
25758;SDS011;13604;52.496;13.456;2023-03-14T11:01:55;5.22;;;1.77;;
25758;SDS011;13604;52.496;13.456;2023-03-14T11:07:14;3.72;;;1.15;;
25758;SDS011;13604;52.496;13.456;2023-03-14T11:09:56;5.43;;;1.10;;
25758;SDS011;13604;52.496;13.456;2023-03-14T11:12:33;4.45;;;1.30;;
25758;SDS011;13604;52.496;13.456;2023-03-14T11:17:53;5.15;;;1.30;;
25758;SDS011;13604;52.496;13.456;2023-03-14T11:20:33;1.42;;;0.80;;
25758;SDS011;13604;52.496;13.456;2023-03-14T11:23:22;8.13;;;1.35;;
25758;SDS011;13604;52.496;13.456;2023-03-14T11:28:57;2.67;;;0.88;;
25758;SDS011;13604;52.496;13.456;2023-03-14T11:31:27;2.15;;;1.10;;
25758;SDS011;13604;52.496;13.456;2023-03-14T11:34:15;2.83;;;1.20;;
25758;SDS011;13604;52.496;13.456;2023-03-14T11:39:26;7.40;;;1.00;;
25758;SDS011;13604;52.496;13.456;2023-03-14T11:47:15;3.58;;;1.20;;
25758;SDS011;13604;52.496;13.456;2023-03-14T11:50:14;4.10;;;1.42;;
25758;SDS011;13604;52.496;13.456;2023-03-14T11:52:50;10.07;;;1.58;;
25758;SDS011;13604;52.496;13.456;2023-03-14T11:55:33;1.55;;;1.10;;
25758;SDS011;13604;52.496;13.456;2023-03-14T11:58:01;2.85;;;1.30;;
25758;SDS011;13604;52.496;13.456;2023-03-14T12:00:34;4.82;;;1.00;;
25758;SDS011;13604;52.496;13.456;2023-03-14T12:03:43;4.25;;;1.33;;
25758;SDS011;13604;52.496;13.456;2023-03-14T12:08:46;4.55;;;1.63;;
25758;SDS011;13604;52.496;13.456;2023-03-14T12:11:18;3.22;;;1.25;;
25758;SDS011;13604;52.496;13.456;2023-03-14T12:21:17;6.00;;;1.05;;
25758;SDS011;13604;52.496;13.456;2023-03-14T12:23:50;5.00;;;1.27;;
25758;SDS011;13604;52.496;13.456;2023-03-14T12:26:19;3.92;;;1.20;;
25758;SDS011;13604;52.496;13.456;2023-03-14T12:45:13;2.33;;;1.38;;
25758;SDS011;13604;52.496;13.456;2023-03-14T12:50:07;3.33;;;1.20;;
25758;SDS011;13604;52.496;13.456;2023-03-14T12:52:46;4.28;;;1.13;;
25758;SDS011;13604;52.496;13.456;2023-03-14T12:55:33;2.28;;;1.10;;
25758;SDS011;13604;52.496;13.456;2023-03-14T13:00:57;2.10;;;1.05;;
25758;SDS011;13604;52.496;13.456;2023-03-14T13:03:26;2.40;;;1.20;;
25758;SDS011;13604;52.496;13.456;2023-03-14T13:06:05;3.80;;;1.10;;
25758;SDS011;13604;52.496;13.456;2023-03-14T13:08:38;2.97;;;1.13;;
25758;SDS011;13604;52.496;13.456;2023-03-14T13:11:09;6.43;;;1.45;;
25758;SDS011;13604;52.496;13.456;2023-03-14T13:13:45;5.10;;;1.55;;
25758;SDS011;13604;52.496;13.456;2023-03-14T13:16:15;2.47;;;1.00;;
25758;SDS011;13604;52.496;13.456;2023-03-14T13:18:44;3.90;;;1.15;;
25758;SDS011;13604;52.496;13.456;2023-03-14T13:21:12;3.03;;;1.10;;
25758;SDS011;13604;52.496;13.456;2023-03-14T13:23:41;3.40;;;1.00;;
25758;SDS011;13604;52.496;13.456;2023-03-14T13:26:34;4.78;;;1.27;;
25758;SDS011;13604;52.496;13.456;2023-03-14T13:31:47;2.90;;;1.40;;
25758;SDS011;13604;52.496;13.456;2023-03-14T13:34:13;4.63;;;1.48;;
25758;SDS011;13604;52.496;13.456;2023-03-14T13:36:39;5.60;;;1.42;;
25758;SDS011;13604;52.496;13.456;2023-03-14T13:39:06;3.72;;;1.17;;
25758;SDS011;13604;52.496;13.456;2023-03-14T13:41:37;1.67;;;1.00;;
25758;SDS011;13604;52.496;13.456;2023-03-14T13:44:13;1.23;;;0.80;;
25758;SDS011;13604;52.496;13.456;2023-03-14T13:46:41;0.88;;;0.80;;
25758;SDS011;13604;52.496;13.456;2023-03-14T13:49:09;2.70;;;1.00;;
25758;SDS011;13604;52.496;13.456;2023-03-14T13:51:38;1.33;;;0.68;;
25758;SDS011;13604;52.496;13.456;2023-03-14T13:54:11;2.88;;;0.90;;
25758;SDS011;13604;52.496;13.456;2023-03-14T13:56:38;0.70;;;0.70;;
25758;SDS011;13604;52.496;13.456;2023-03-14T13:59:04;1.13;;;0.50;;
25758;SDS011;13604;52.496;13.456;2023-03-14T14:01:30;1.25;;;0.57;;
25758;SDS011;13604;52.496;13.456;2023-03-14T14:03:58;1.40;;;0.80;;
25758;SDS011;13604;52.496;13.456;2023-03-14T14:09:14;2.35;;;0.73;;
25758;SDS011;13604;52.496;13.456;2023-03-14T14:11:43;2.08;;;1.10;;
25758;SDS011;13604;52.496;13.456;2023-03-14T14:17:08;1.42;;;0.70;;
25758;SDS011;13604;52.496;13.456;2023-03-14T14:19:37;0.82;;;0.80;;
25758;SDS011;13604;52.496;13.456;2023-03-14T14:22:04;3.22;;;1.08;;
25758;SDS011;13604;52.496;13.456;2023-03-14T14:24:32;5.82;;;0.85;;
25758;SDS011;13604;52.496;13.456;2023-03-14T14:27:01;1.35;;;0.80;;
25758;SDS011;13604;52.496;13.456;2023-03-14T14:30:00;2.47;;;0.65;;
25758;SDS011;13604;52.496;13.456;2023-03-14T14:32:35;2.30;;;0.70;;
25758;SDS011;13604;52.496;13.456;2023-03-14T14:35:02;0.95;;;0.73;;
25758;SDS011;13604;52.496;13.456;2023-03-14T14:40:16;2.50;;;1.27;;
25758;SDS011;13604;52.496;13.456;2023-03-14T14:42:45;0.70;;;0.70;;
25758;SDS011;13604;52.496;13.456;2023-03-14T14:45:12;2.05;;;0.80;;
25758;SDS011;13604;52.496;13.456;2023-03-14T14:47:51;2.00;;;0.90;;
25758;SDS011;13604;52.496;13.456;2023-03-14T14:52:58;2.15;;;1.10;;
25758;SDS011;13604;52.496;13.456;2023-03-14T14:55:29;1.60;;;0.68;;
25758;SDS011;13604;52.496;13.456;2023-03-14T14:57:57;1.25;;;0.82;;
25758;SDS011;13604;52.496;13.456;2023-03-14T15:00:39;2.88;;;0.95;;
25758;SDS011;13604;52.496;13.456;2023-03-14T15:03:10;0.90;;;0.85;;
25758;SDS011;13604;52.496;13.456;2023-03-14T15:05:39;0.70;;;0.70;;
25758;SDS011;13604;52.496;13.456;2023-03-14T15:08:08;1.70;;;1.05;;
25758;SDS011;13604;52.496;13.456;2023-03-14T15:10:34;1.60;;;0.90;;
25758;SDS011;13604;52.496;13.456;2023-03-14T15:12:59;2.08;;;0.98;;
25758;SDS011;13604;52.496;13.456;2023-03-14T15:15:25;2.03;;;1.10;;
25758;SDS011;13604;52.496;13.456;2023-03-14T15:17:50;2.25;;;0.95;;
25758;SDS011;13604;52.496;13.456;2023-03-14T15:20:16;0.98;;;0.70;;
25758;SDS011;13604;52.496;13.456;2023-03-14T15:22:43;0.85;;;0.80;;
25758;SDS011;13604;52.496;13.456;2023-03-14T15:25:08;0.95;;;0.50;;
25758;SDS011;13604;52.496;13.456;2023-03-14T15:27:34;3.78;;;0.80;;
25758;SDS011;13604;52.496;13.456;2023-03-14T15:30:00;3.22;;;0.60;;
25758;SDS011;13604;52.496;13.456;2023-03-14T15:32:26;0.68;;;0.30;;
25758;SDS011;13604;52.496;13.456;2023-03-14T15:34:55;2.08;;;0.35;;
25758;SDS011;13604;52.496;13.456;2023-03-14T15:37:20;0.93;;;0.77;;
25758;SDS011;13604;52.496;13.456;2023-03-14T15:39:46;0.93;;;0.47;;
25758;SDS011;13604;52.496;13.456;2023-03-14T15:42:11;2.30;;;0.57;;
25758;SDS011;13604;52.496;13.456;2023-03-14T15:44:37;3.70;;;0.68;;
25758;SDS011;13604;52.496;13.456;2023-03-14T15:47:03;1.38;;;0.57;;
25758;SDS011;13604;52.496;13.456;2023-03-14T15:49:29;0.93;;;0.60;;
25758;SDS011;13604;52.496;13.456;2023-03-14T15:51:54;1.40;;;0.35;;
25758;SDS011;13604;52.496;13.456;2023-03-14T15:54:19;2.45;;;0.43;;
25758;SDS011;13604;52.496;13.456;2023-03-14T15:56:45;0.40;;;0.40;;
25758;SDS011;13604;52.496;13.456;2023-03-14T15:59:10;1.10;;;0.50;;
25758;SDS011;13604;52.496;13.456;2023-03-14T16:01:35;3.97;;;1.10;;